sensor_id;sensor_type;location;lat;lon;timestamp;P1;durP1;ratioP1;P2;durP2;ratioP2
8060;SDS011;4073;42.626;25.386;2024-03-06T00:01:50;9.63;;;4.57;;
8060;SDS011;4073;42.626;25.386;2024-03-06T00:04:16;5.07;;;3.03;;
8060;SDS011;4073;42.626;25.386;2024-03-06T00:06:41;8.57;;;4.37;;
8060;SDS011;4073;42.626;25.386;2024-03-06T00:09:07;9.50;;;5.03;;
8060;SDS011;4073;42.626;25.386;2024-03-06T00:11:33;7.30;;;4.60;;
8060;SDS011;4073;42.626;25.386;2024-03-06T00:14:02;5.53;;;3.57;;
8060;SDS011;4073;42.626;25.386;2024-03-06T00:16:30;6.93;;;3.87;;
8060;SDS011;4073;42.626;25.386;2024-03-06T00:18:59;4.53;;;3.57;;
8060;SDS011;4073;42.626;25.386;2024-03-06T00:21:24;4.17;;;2.97;;
8060;SDS011;4073;42.626;25.386;2024-03-06T00:23:50;8.00;;;4.50;;
8060;SDS011;4073;42.626;25.386;2024-03-06T00:26:15;8.27;;;4.83;;
8060;SDS011;4073;42.626;25.386;2024-03-06T00:28:41;10.40;;;6.43;;
8060;SDS011;4073;42.626;25.386;2024-03-06T00:31:06;5.07;;;4.17;;
8060;SDS011;4073;42.626;25.386;2024-03-06T00:33:32;8.73;;;4.07;;
8060;SDS011;4073;42.626;25.386;2024-03-06T00:35:58;8.07;;;4.33;;
8060;SDS011;4073;42.626;25.386;2024-03-06T00:38:23;14.47;;;7.27;;
8060;SDS011;4073;42.626;25.386;2024-03-06T00:40:49;38.97;;;18.23;;
8060;SDS011;4073;42.626;25.386;2024-03-06T00:43:14;20.93;;;10.23;;
8060;SDS011;4073;42.626;25.386;2024-03-06T00:45:40;27.43;;;11.63;;
8060;SDS011;4073;42.626;25.386;2024-03-06T00:48:05;6.47;;;3.53;;
8060;SDS011;4073;42.626;25.386;2024-03-06T00:50:31;3.80;;;3.40;;
8060;SDS011;4073;42.626;25.386;2024-03-06T00:52:57;4.57;;;3.63;;
8060;SDS011;4073;42.626;25.386;2024-03-06T00:55:23;14.73;;;8.03;;
8060;SDS011;4073;42.626;25.386;2024-03-06T00:57:48;5.00;;;4.20;;
8060;SDS011;4073;42.626;25.386;2024-03-06T01:00:14;12.93;;;8.07;;
8060;SDS011;4073;42.626;25.386;2024-03-06T01:02:41;24.93;;;13.60;;
8060;SDS011;4073;42.626;25.386;2024-03-06T01:05:07;18.93;;;10.30;;
8060;SDS011;4073;42.626;25.386;2024-03-06T01:07:33;5.73;;;4.53;;
8060;SDS011;4073;42.626;25.386;2024-03-06T01:09:59;21.00;;;11.63;;
8060;SDS011;4073;42.626;25.386;2024-03-06T01:12:26;18.17;;;11.40;;
8060;SDS011;4073;42.626;25.386;2024-03-06T01:14:52;18.87;;;11.17;;
8060;SDS011;4073;42.626;25.386;2024-03-06T01:17:17;18.47;;;10.83;;
8060;SDS011;4073;42.626;25.386;2024-03-06T01:19:43;14.77;;;9.57;;
8060;SDS011;4073;42.626;25.386;2024-03-06T01:22:09;11.97;;;8.27;;
8060;SDS011;4073;42.626;25.386;2024-03-06T01:24:35;8.77;;;5.67;;
8060;SDS011;4073;42.626;25.386;2024-03-06T01:27:01;13.83;;;8.57;;
8060;SDS011;4073;42.626;25.386;2024-03-06T01:29:29;9.80;;;6.27;;
8060;SDS011;4073;42.626;25.386;2024-03-06T01:31:55;26.60;;;14.60;;
8060;SDS011;4073;42.626;25.386;2024-03-06T01:34:20;26.43;;;14.67;;
8060;SDS011;4073;42.626;25.386;2024-03-06T01:36:47;28.17;;;15.80;;
8060;SDS011;4073;42.626;25.386;2024-03-06T01:39:13;23.70;;;14.47;;
8060;SDS011;4073;42.626;25.386;2024-03-06T01:41:44;13.67;;;7.87;;
8060;SDS011;4073;42.626;25.386;2024-03-06T01:44:17;16.60;;;9.20;;
8060;SDS011;4073;42.626;25.386;2024-03-06T01:46:43;14.03;;;9.43;;
8060;SDS011;4073;42.626;25.386;2024-03-06T01:49:10;13.70;;;8.60;;
8060;SDS011;4073;42.626;25.386;2024-03-06T01:51:36;16.40;;;10.00;;
8060;SDS011;4073;42.626;25.386;2024-03-06T01:54:02;13.20;;;8.47;;
8060;SDS011;4073;42.626;25.386;2024-03-06T01:56:29;8.13;;;6.20;;
8060;SDS011;4073;42.626;25.386;2024-03-06T01:58:56;7.30;;;5.90;;
8060;SDS011;4073;42.626;25.386;2024-03-06T02:01:23;8.73;;;6.33;;
8060;SDS011;4073;42.626;25.386;2024-03-06T02:03:49;7.10;;;6.40;;
8060;SDS011;4073;42.626;25.386;2024-03-06T02:06:16;10.03;;;6.33;;
8060;SDS011;4073;42.626;25.386;2024-03-06T02:08:45;8.50;;;5.90;;
8060;SDS011;4073;42.626;25.386;2024-03-06T02:11:11;7.30;;;5.70;;
8060;SDS011;4073;42.626;25.386;2024-03-06T02:13:38;6.63;;;5.33;;
8060;SDS011;4073;42.626;25.386;2024-03-06T02:16:04;7.57;;;6.20;;
8060;SDS011;4073;42.626;25.386;2024-03-06T02:18:30;8.77;;;6.27;;
8060;SDS011;4073;42.626;25.386;2024-03-06T02:20:56;8.77;;;6.10;;
8060;SDS011;4073;42.626;25.386;2024-03-06T02:23:22;6.87;;;5.83;;
8060;SDS011;4073;42.626;25.386;2024-03-06T02:25:48;6.57;;;5.70;;
8060;SDS011;4073;42.626;25.386;2024-03-06T02:28:15;8.27;;;6.33;;
8060;SDS011;4073;42.626;25.386;2024-03-06T02:30:42;13.13;;;7.30;;
8060;SDS011;4073;42.626;25.386;2024-03-06T02:33:07;9.37;;;6.47;;
8060;SDS011;4073;42.626;25.386;2024-03-06T02:35:34;8.53;;;6.20;;
8060;SDS011;4073;42.626;25.386;2024-03-06T02:38:01;8.30;;;6.03;;
8060;SDS011;4073;42.626;25.386;2024-03-06T02:40:29;7.17;;;5.80;;
8060;SDS011;4073;42.626;25.386;2024-03-06T02:42:55;6.80;;;5.27;;
8060;SDS011;4073;42.626;25.386;2024-03-06T02:45:21;6.97;;;5.27;;
8060;SDS011;4073;42.626;25.386;2024-03-06T02:47:47;6.93;;;5.60;;
8060;SDS011;4073;42.626;25.386;2024-03-06T02:50:12;7.47;;;5.93;;
8060;SDS011;4073;42.626;25.386;2024-03-06T02:52:38;8.57;;;6.67;;
8060;SDS011;4073;42.626;25.386;2024-03-06T02:55:04;7.17;;;5.40;;
8060;SDS011;4073;42.626;25.386;2024-03-06T02:57:30;8.63;;;5.93;;
8060;SDS011;4073;42.626;25.386;2024-03-06T02:59:56;10.33;;;5.87;;
8060;SDS011;4073;42.626;25.386;2024-03-06T03:02:23;7.80;;;6.13;;
8060;SDS011;4073;42.626;25.386;2024-03-06T03:04:49;8.00;;;7.20;;
8060;SDS011;4073;42.626;25.386;2024-03-06T03:07:15;9.40;;;6.23;;
8060;SDS011;4073;42.626;25.386;2024-03-06T03:09:40;8.53;;;7.07;;
8060;SDS011;4073;42.626;25.386;2024-03-06T03:12:06;7.67;;;6.30;;
8060;SDS011;4073;42.626;25.386;2024-03-06T03:14:32;6.73;;;5.80;;
8060;SDS011;4073;42.626;25.386;2024-03-06T03:16:59;7.50;;;5.67;;
8060;SDS011;4073;42.626;25.386;2024-03-06T03:19:25;6.80;;;5.50;;
8060;SDS011;4073;42.626;25.386;2024-03-06T03:21:50;8.80;;;6.00;;
8060;SDS011;4073;42.626;25.386;2024-03-06T03:24:16;8.03;;;5.87;;
8060;SDS011;4073;42.626;25.386;2024-03-06T03:26:45;8.20;;;6.30;;
8060;SDS011;4073;42.626;25.386;2024-03-06T03:29:10;9.50;;;7.53;;
8060;SDS011;4073;42.626;25.386;2024-03-06T03:31:36;9.13;;;6.83;;
8060;SDS011;4073;42.626;25.386;2024-03-06T03:34:03;9.93;;;7.73;;
8060;SDS011;4073;42.626;25.386;2024-03-06T03:36:30;10.87;;;8.70;;
8060;SDS011;4073;42.626;25.386;2024-03-06T03:38:56;10.53;;;8.73;;
8060;SDS011;4073;42.626;25.386;2024-03-06T03:41:21;11.10;;;8.83;;
8060;SDS011;4073;42.626;25.386;2024-03-06T03:43:47;9.60;;;8.60;;
8060;SDS011;4073;42.626;25.386;2024-03-06T03:46:12;15.77;;;8.30;;
8060;SDS011;4073;42.626;25.386;2024-03-06T03:48:39;15.23;;;9.73;;
8060;SDS011;4073;42.626;25.386;2024-03-06T03:51:05;14.00;;;7.80;;
8060;SDS011;4073;42.626;25.386;2024-03-06T03:53:32;13.43;;;8.27;;
8060;SDS011;4073;42.626;25.386;2024-03-06T03:55:58;23.77;;;11.90;;
8060;SDS011;4073;42.626;25.386;2024-03-06T03:58:24;38.53;;;9.00;;
8060;SDS011;4073;42.626;25.386;2024-03-06T04:00:49;45.97;;;9.47;;
8060;SDS011;4073;42.626;25.386;2024-03-06T04:03:18;20.17;;;9.90;;
8060;SDS011;4073;42.626;25.386;2024-03-06T04:05:46;16.87;;;9.70;;
8060;SDS011;4073;42.626;25.386;2024-03-06T04:08:14;27.60;;;9.40;;
8060;SDS011;4073;42.626;25.386;2024-03-06T04:10:41;15.67;;;10.10;;
8060;SDS011;4073;42.626;25.386;2024-03-06T04:13:10;27.50;;;13.63;;
8060;SDS011;4073;42.626;25.386;2024-03-06T04:15:36;31.80;;;9.90;;
8060;SDS011;4073;42.626;25.386;2024-03-06T04:18:02;14.70;;;10.40;;
8060;SDS011;4073;42.626;25.386;2024-03-06T04:20:28;11.23;;;10.03;;
8060;SDS011;4073;42.626;25.386;2024-03-06T04:22:53;12.13;;;8.83;;
8060;SDS011;4073;42.626;25.386;2024-03-06T04:25:19;9.13;;;7.37;;
8060;SDS011;4073;42.626;25.386;2024-03-06T04:27:44;13.67;;;9.23;;
8060;SDS011;4073;42.626;25.386;2024-03-06T04:30:10;11.37;;;7.77;;
8060;SDS011;4073;42.626;25.386;2024-03-06T04:32:36;9.97;;;7.90;;
8060;SDS011;4073;42.626;25.386;2024-03-06T04:35:02;13.00;;;10.03;;
8060;SDS011;4073;42.626;25.386;2024-03-06T04:37:27;9.83;;;8.17;;
8060;SDS011;4073;42.626;25.386;2024-03-06T04:39:54;8.07;;;7.27;;
8060;SDS011;4073;42.626;25.386;2024-03-06T04:42:19;7.73;;;6.90;;
8060;SDS011;4073;42.626;25.386;2024-03-06T04:44:45;8.57;;;7.43;;
8060;SDS011;4073;42.626;25.386;2024-03-06T04:47:11;9.60;;;8.00;;
8060;SDS011;4073;42.626;25.386;2024-03-06T04:49:36;11.23;;;7.80;;
8060;SDS011;4073;42.626;25.386;2024-03-06T04:52:02;9.03;;;8.07;;
8060;SDS011;4073;42.626;25.386;2024-03-06T04:54:28;13.23;;;9.00;;
8060;SDS011;4073;42.626;25.386;2024-03-06T04:56:55;11.93;;;9.53;;
8060;SDS011;4073;42.626;25.386;2024-03-06T04:59:21;19.70;;;15.50;;
8060;SDS011;4073;42.626;25.386;2024-03-06T05:01:46;20.93;;;17.53;;
8060;SDS011;4073;42.626;25.386;2024-03-06T05:04:12;22.30;;;16.00;;
8060;SDS011;4073;42.626;25.386;2024-03-06T05:06:37;25.67;;;18.30;;
8060;SDS011;4073;42.626;25.386;2024-03-06T05:09:03;28.20;;;18.67;;
8060;SDS011;4073;42.626;25.386;2024-03-06T05:11:29;21.70;;;14.30;;
8060;SDS011;4073;42.626;25.386;2024-03-06T05:13:57;24.13;;;18.80;;
8060;SDS011;4073;42.626;25.386;2024-03-06T05:16:24;17.43;;;14.60;;
8060;SDS011;4073;42.626;25.386;2024-03-06T05:18:51;16.97;;;13.30;;
8060;SDS011;4073;42.626;25.386;2024-03-06T05:21:17;13.93;;;12.43;;
8060;SDS011;4073;42.626;25.386;2024-03-06T05:23:43;17.63;;;12.33;;
8060;SDS011;4073;42.626;25.386;2024-03-06T05:26:09;16.17;;;11.47;;
8060;SDS011;4073;42.626;25.386;2024-03-06T05:28:34;14.40;;;11.17;;
8060;SDS011;4073;42.626;25.386;2024-03-06T05:31:00;12.37;;;10.90;;
8060;SDS011;4073;42.626;25.386;2024-03-06T05:33:26;12.90;;;11.43;;
8060;SDS011;4073;42.626;25.386;2024-03-06T05:35:53;14.53;;;11.70;;
8060;SDS011;4073;42.626;25.386;2024-03-06T05:38:19;18.13;;;14.10;;
8060;SDS011;4073;42.626;25.386;2024-03-06T05:40:44;16.57;;;12.83;;
8060;SDS011;4073;42.626;25.386;2024-03-06T05:43:10;15.03;;;11.93;;
8060;SDS011;4073;42.626;25.386;2024-03-06T05:45:36;18.87;;;13.83;;
8060;SDS011;4073;42.626;25.386;2024-03-06T05:48:01;19.70;;;17.07;;
8060;SDS011;4073;42.626;25.386;2024-03-06T05:50:29;16.67;;;12.90;;
8060;SDS011;4073;42.626;25.386;2024-03-06T05:52:55;24.70;;;19.33;;
8060;SDS011;4073;42.626;25.386;2024-03-06T05:55:22;13.73;;;12.30;;
8060;SDS011;4073;42.626;25.386;2024-03-06T05:57:48;15.97;;;12.77;;
8060;SDS011;4073;42.626;25.386;2024-03-06T06:00:14;11.47;;;9.30;;
8060;SDS011;4073;42.626;25.386;2024-03-06T06:02:43;9.07;;;8.17;;
8060;SDS011;4073;42.626;25.386;2024-03-06T06:05:10;10.23;;;8.33;;
8060;SDS011;4073;42.626;25.386;2024-03-06T06:07:36;11.10;;;8.57;;
8060;SDS011;4073;42.626;25.386;2024-03-06T06:10:03;9.30;;;7.97;;
8060;SDS011;4073;42.626;25.386;2024-03-06T06:12:33;10.47;;;7.83;;
8060;SDS011;4073;42.626;25.386;2024-03-06T06:14:59;11.37;;;8.20;;
8060;SDS011;4073;42.626;25.386;2024-03-06T06:17:24;8.77;;;7.87;;
8060;SDS011;4073;42.626;25.386;2024-03-06T06:19:50;10.20;;;8.90;;
8060;SDS011;4073;42.626;25.386;2024-03-06T06:22:15;12.23;;;9.57;;
8060;SDS011;4073;42.626;25.386;2024-03-06T06:24:41;15.80;;;11.63;;
8060;SDS011;4073;42.626;25.386;2024-03-06T06:27:06;15.40;;;13.23;;
8060;SDS011;4073;42.626;25.386;2024-03-06T06:29:33;15.47;;;12.10;;
8060;SDS011;4073;42.626;25.386;2024-03-06T06:31:59;12.40;;;10.47;;
8060;SDS011;4073;42.626;25.386;2024-03-06T06:34:24;14.40;;;12.53;;
8060;SDS011;4073;42.626;25.386;2024-03-06T06:36:53;15.17;;;12.50;;
8060;SDS011;4073;42.626;25.386;2024-03-06T06:39:18;14.80;;;13.13;;
8060;SDS011;4073;42.626;25.386;2024-03-06T06:41:44;13.53;;;11.20;;
8060;SDS011;4073;42.626;25.386;2024-03-06T06:44:09;19.23;;;12.00;;
8060;SDS011;4073;42.626;25.386;2024-03-06T06:46:35;16.60;;;11.37;;
8060;SDS011;4073;42.626;25.386;2024-03-06T06:49:00;13.33;;;11.27;;
8060;SDS011;4073;42.626;25.386;2024-03-06T06:51:26;14.30;;;12.70;;
8060;SDS011;4073;42.626;25.386;2024-03-06T06:53:51;16.70;;;13.10;;
8060;SDS011;4073;42.626;25.386;2024-03-06T06:56:17;15.80;;;13.70;;
8060;SDS011;4073;42.626;25.386;2024-03-06T06:58:42;15.70;;;11.47;;
8060;SDS011;4073;42.626;25.386;2024-03-06T07:01:08;13.17;;;9.83;;
8060;SDS011;4073;42.626;25.386;2024-03-06T07:03:35;12.97;;;10.57;;
8060;SDS011;4073;42.626;25.386;2024-03-06T07:06:00;13.93;;;11.10;;
8060;SDS011;4073;42.626;25.386;2024-03-06T07:08:28;17.47;;;12.20;;
8060;SDS011;4073;42.626;25.386;2024-03-06T07:10:54;15.50;;;12.23;;
8060;SDS011;4073;42.626;25.386;2024-03-06T07:13:20;17.13;;;11.50;;
8060;SDS011;4073;42.626;25.386;2024-03-06T07:15:45;14.80;;;9.50;;
8060;SDS011;4073;42.626;25.386;2024-03-06T07:18:11;11.70;;;9.50;;
8060;SDS011;4073;42.626;25.386;2024-03-06T07:20:39;13.40;;;9.53;;
8060;SDS011;4073;42.626;25.386;2024-03-06T07:23:05;10.87;;;8.87;;
8060;SDS011;4073;42.626;25.386;2024-03-06T07:25:30;11.13;;;8.90;;
8060;SDS011;4073;42.626;25.386;2024-03-06T07:27:56;12.17;;;10.07;;
8060;SDS011;4073;42.626;25.386;2024-03-06T07:30:21;12.70;;;11.30;;
8060;SDS011;4073;42.626;25.386;2024-03-06T07:32:47;15.33;;;9.53;;
8060;SDS011;4073;42.626;25.386;2024-03-06T07:35:13;13.83;;;9.13;;
8060;SDS011;4073;42.626;25.386;2024-03-06T07:37:38;10.17;;;7.73;;
8060;SDS011;4073;42.626;25.386;2024-03-06T07:40:05;11.40;;;8.40;;
8060;SDS011;4073;42.626;25.386;2024-03-06T07:42:34;11.87;;;7.83;;
8060;SDS011;4073;42.626;25.386;2024-03-06T07:45:00;9.10;;;7.23;;
8060;SDS011;4073;42.626;25.386;2024-03-06T07:47:25;14.43;;;7.97;;
8060;SDS011;4073;42.626;25.386;2024-03-06T07:49:51;9.97;;;7.37;;
8060;SDS011;4073;42.626;25.386;2024-03-06T07:52:17;8.97;;;6.83;;
8060;SDS011;4073;42.626;25.386;2024-03-06T07:54:43;11.20;;;7.40;;
8060;SDS011;4073;42.626;25.386;2024-03-06T07:57:08;9.63;;;7.50;;
8060;SDS011;4073;42.626;25.386;2024-03-06T07:59:35;12.60;;;7.87;;
8060;SDS011;4073;42.626;25.386;2024-03-06T08:02:00;14.10;;;7.73;;
8060;SDS011;4073;42.626;25.386;2024-03-06T08:04:26;10.13;;;7.23;;
8060;SDS011;4073;42.626;25.386;2024-03-06T08:06:52;11.13;;;6.80;;
8060;SDS011;4073;42.626;25.386;2024-03-06T08:09:17;7.60;;;6.17;;
8060;SDS011;4073;42.626;25.386;2024-03-06T08:11:44;10.40;;;7.07;;
8060;SDS011;4073;42.626;25.386;2024-03-06T08:14:10;9.97;;;6.37;;
8060;SDS011;4073;42.626;25.386;2024-03-06T08:16:36;7.17;;;5.70;;
8060;SDS011;4073;42.626;25.386;2024-03-06T08:19:02;10.37;;;6.07;;
8060;SDS011;4073;42.626;25.386;2024-03-06T08:21:28;10.17;;;7.67;;
8060;SDS011;4073;42.626;25.386;2024-03-06T08:23:53;9.27;;;6.87;;
8060;SDS011;4073;42.626;25.386;2024-03-06T08:26:19;9.67;;;6.93;;
8060;SDS011;4073;42.626;25.386;2024-03-06T08:28:44;5.83;;;5.23;;
8060;SDS011;4073;42.626;25.386;2024-03-06T08:31:10;9.17;;;6.07;;
8060;SDS011;4073;42.626;25.386;2024-03-06T08:33:35;8.07;;;5.63;;
8060;SDS011;4073;42.626;25.386;2024-03-06T08:36:01;6.27;;;5.63;;
8060;SDS011;4073;42.626;25.386;2024-03-06T08:38:27;6.37;;;5.20;;
8060;SDS011;4073;42.626;25.386;2024-03-06T08:40:53;9.47;;;6.67;;
8060;SDS011;4073;42.626;25.386;2024-03-06T08:43:18;10.33;;;7.00;;
8060;SDS011;4073;42.626;25.386;2024-03-06T08:45:45;11.23;;;9.43;;
8060;SDS011;4073;42.626;25.386;2024-03-06T08:48:10;13.43;;;10.17;;
8060;SDS011;4073;42.626;25.386;2024-03-06T08:50:36;11.33;;;10.00;;
8060;SDS011;4073;42.626;25.386;2024-03-06T08:53:02;13.87;;;9.93;;
8060;SDS011;4073;42.626;25.386;2024-03-06T08:55:28;15.33;;;9.97;;
8060;SDS011;4073;42.626;25.386;2024-03-06T08:57:53;12.37;;;10.73;;
8060;SDS011;4073;42.626;25.386;2024-03-06T09:00:19;11.73;;;9.30;;
8060;SDS011;4073;42.626;25.386;2024-03-06T09:02:45;11.90;;;9.77;;
8060;SDS011;4073;42.626;25.386;2024-03-06T09:05:10;13.40;;;9.30;;
8060;SDS011;4073;42.626;25.386;2024-03-06T09:07:38;11.73;;;8.97;;
8060;SDS011;4073;42.626;25.386;2024-03-06T09:10:06;12.77;;;9.53;;
8060;SDS011;4073;42.626;25.386;2024-03-06T09:12:32;10.50;;;9.33;;
8060;SDS011;4073;42.626;25.386;2024-03-06T09:14:58;16.07;;;9.30;;
8060;SDS011;4073;42.626;25.386;2024-03-06T09:17:25;10.87;;;8.73;;
8060;SDS011;4073;42.626;25.386;2024-03-06T09:19:51;9.50;;;7.93;;
8060;SDS011;4073;42.626;25.386;2024-03-06T09:22:17;8.73;;;6.87;;
8060;SDS011;4073;42.626;25.386;2024-03-06T09:24:42;11.37;;;6.40;;
8060;SDS011;4073;42.626;25.386;2024-03-06T09:27:08;11.67;;;6.53;;
8060;SDS011;4073;42.626;25.386;2024-03-06T09:29:33;13.87;;;6.20;;
8060;SDS011;4073;42.626;25.386;2024-03-06T09:31:59;9.67;;;6.20;;
8060;SDS011;4073;42.626;25.386;2024-03-06T09:34:25;8.93;;;7.03;;
8060;SDS011;4073;42.626;25.386;2024-03-06T09:36:50;11.37;;;6.93;;
8060;SDS011;4073;42.626;25.386;2024-03-06T09:39:17;7.37;;;5.47;;
8060;SDS011;4073;42.626;25.386;2024-03-06T09:41:48;9.57;;;6.07;;
8060;SDS011;4073;42.626;25.386;2024-03-06T09:44:15;6.17;;;5.23;;
8060;SDS011;4073;42.626;25.386;2024-03-06T09:46:42;8.37;;;5.83;;
8060;SDS011;4073;42.626;25.386;2024-03-06T09:49:09;10.10;;;6.50;;
8060;SDS011;4073;42.626;25.386;2024-03-06T09:51:40;7.60;;;5.50;;
8060;SDS011;4073;42.626;25.386;2024-03-06T09:54:09;8.63;;;6.93;;
8060;SDS011;4073;42.626;25.386;2024-03-06T09:56:38;7.57;;;6.30;;
8060;SDS011;4073;42.626;25.386;2024-03-06T09:59:04;8.83;;;5.83;;
8060;SDS011;4073;42.626;25.386;2024-03-06T10:01:29;7.50;;;5.97;;
8060;SDS011;4073;42.626;25.386;2024-03-06T10:03:56;6.63;;;5.33;;
8060;SDS011;4073;42.626;25.386;2024-03-06T10:06:22;8.33;;;5.90;;
8060;SDS011;4073;42.626;25.386;2024-03-06T10:08:48;8.40;;;6.23;;
8060;SDS011;4073;42.626;25.386;2024-03-06T10:11:14;6.47;;;5.70;;
8060;SDS011;4073;42.626;25.386;2024-03-06T10:13:42;6.77;;;5.93;;
8060;SDS011;4073;42.626;25.386;2024-03-06T10:16:07;7.00;;;5.87;;
8060;SDS011;4073;42.626;25.386;2024-03-06T10:18:35;6.90;;;5.63;;
8060;SDS011;4073;42.626;25.386;2024-03-06T10:21:01;8.97;;;5.43;;
8060;SDS011;4073;42.626;25.386;2024-03-06T10:23:26;8.87;;;5.47;;
8060;SDS011;4073;42.626;25.386;2024-03-06T10:25:55;7.90;;;6.03;;
8060;SDS011;4073;42.626;25.386;2024-03-06T10:28:21;9.17;;;6.40;;
8060;SDS011;4073;42.626;25.386;2024-03-06T10:30:48;9.30;;;5.77;;
8060;SDS011;4073;42.626;25.386;2024-03-06T10:33:16;10.03;;;6.43;;
8060;SDS011;4073;42.626;25.386;2024-03-06T10:35:46;7.40;;;5.73;;
8060;SDS011;4073;42.626;25.386;2024-03-06T10:38:16;8.27;;;6.60;;
8060;SDS011;4073;42.626;25.386;2024-03-06T10:40:45;10.53;;;6.20;;
8060;SDS011;4073;42.626;25.386;2024-03-06T10:43:10;10.30;;;6.73;;
8060;SDS011;4073;42.626;25.386;2024-03-06T10:45:40;9.70;;;7.07;;
8060;SDS011;4073;42.626;25.386;2024-03-06T10:48:08;8.30;;;6.63;;
8060;SDS011;4073;42.626;25.386;2024-03-06T10:50:37;9.70;;;6.27;;
8060;SDS011;4073;42.626;25.386;2024-03-06T10:53:06;10.07;;;7.00;;
8060;SDS011;4073;42.626;25.386;2024-03-06T10:55:35;8.00;;;5.80;;
8060;SDS011;4073;42.626;25.386;2024-03-06T10:58:01;7.43;;;5.97;;
8060;SDS011;4073;42.626;25.386;2024-03-06T11:00:35;10.70;;;7.07;;
8060;SDS011;4073;42.626;25.386;2024-03-06T11:03:05;7.50;;;6.13;;
8060;SDS011;4073;42.626;25.386;2024-03-06T11:05:44;10.27;;;6.60;;
8060;SDS011;4073;42.626;25.386;2024-03-06T11:08:12;7.77;;;5.80;;
8060;SDS011;4073;42.626;25.386;2024-03-06T11:10:40;8.60;;;6.00;;
8060;SDS011;4073;42.626;25.386;2024-03-06T11:13:25;7.40;;;5.40;;
8060;SDS011;4073;42.626;25.386;2024-03-06T11:15:52;9.33;;;6.47;;
8060;SDS011;4073;42.626;25.386;2024-03-06T11:23:28;10.07;;;6.23;;
8060;SDS011;4073;42.626;25.386;2024-03-06T11:28:21;8.13;;;6.60;;
8060;SDS011;4073;42.626;25.386;2024-03-06T11:30:48;9.90;;;6.77;;
8060;SDS011;4073;42.626;25.386;2024-03-06T11:33:26;12.50;;;6.30;;
8060;SDS011;4073;42.626;25.386;2024-03-06T11:39:27;8.83;;;6.00;;
8060;SDS011;4073;42.626;25.386;2024-03-06T11:44:08;6.70;;;5.53;;
8060;SDS011;4073;42.626;25.386;2024-03-06T11:46:49;7.33;;;5.63;;
8060;SDS011;4073;42.626;25.386;2024-03-06T11:49:23;8.20;;;5.23;;
8060;SDS011;4073;42.626;25.386;2024-03-06T11:51:59;6.60;;;5.33;;
8060;SDS011;4073;42.626;25.386;2024-03-06T11:54:27;8.33;;;5.37;;
8060;SDS011;4073;42.626;25.386;2024-03-06T11:56:55;10.63;;;5.33;;
8060;SDS011;4073;42.626;25.386;2024-03-06T11:59:32;6.40;;;4.87;;
8060;SDS011;4073;42.626;25.386;2024-03-06T12:01:59;7.80;;;4.70;;
8060;SDS011;4073;42.626;25.386;2024-03-06T12:04:32;10.50;;;5.17;;
8060;SDS011;4073;42.626;25.386;2024-03-06T12:06:59;5.80;;;4.30;;
8060;SDS011;4073;42.626;25.386;2024-03-06T12:09:30;5.73;;;4.47;;
8060;SDS011;4073;42.626;25.386;2024-03-06T12:11:55;8.67;;;5.77;;
8060;SDS011;4073;42.626;25.386;2024-03-06T12:14:22;6.33;;;4.83;;
8060;SDS011;4073;42.626;25.386;2024-03-06T12:16:57;8.67;;;4.47;;
8060;SDS011;4073;42.626;25.386;2024-03-06T12:19:28;7.80;;;4.63;;
8060;SDS011;4073;42.626;25.386;2024-03-06T12:21:59;6.13;;;4.93;;
8060;SDS011;4073;42.626;25.386;2024-03-06T12:24:26;5.97;;;4.17;;
8060;SDS011;4073;42.626;25.386;2024-03-06T12:27:01;4.90;;;4.33;;
8060;SDS011;4073;42.626;25.386;2024-03-06T12:29:31;6.20;;;5.07;;
8060;SDS011;4073;42.626;25.386;2024-03-06T12:31:58;7.33;;;5.10;;
8060;SDS011;4073;42.626;25.386;2024-03-06T12:34:24;8.90;;;4.60;;
8060;SDS011;4073;42.626;25.386;2024-03-06T12:36:50;7.50;;;4.93;;
8060;SDS011;4073;42.626;25.386;2024-03-06T12:42:00;4.90;;;4.40;;
8060;SDS011;4073;42.626;25.386;2024-03-06T12:44:26;5.17;;;4.67;;
8060;SDS011;4073;42.626;25.386;2024-03-06T12:46:51;6.23;;;5.17;;
8060;SDS011;4073;42.626;25.386;2024-03-06T12:49:17;7.30;;;4.60;;
8060;SDS011;4073;42.626;25.386;2024-03-06T12:51:43;8.00;;;4.40;;
8060;SDS011;4073;42.626;25.386;2024-03-06T12:54:09;6.50;;;4.53;;
8060;SDS011;4073;42.626;25.386;2024-03-06T12:56:35;5.63;;;4.33;;
8060;SDS011;4073;42.626;25.386;2024-03-06T12:59:01;4.93;;;4.13;;
8060;SDS011;4073;42.626;25.386;2024-03-06T13:01:26;6.43;;;4.80;;
8060;SDS011;4073;42.626;25.386;2024-03-06T13:03:52;7.03;;;4.73;;
8060;SDS011;4073;42.626;25.386;2024-03-06T13:06:17;5.27;;;4.23;;
8060;SDS011;4073;42.626;25.386;2024-03-06T13:08:43;4.77;;;4.30;;
8060;SDS011;4073;42.626;25.386;2024-03-06T13:11:09;5.57;;;5.07;;
8060;SDS011;4073;42.626;25.386;2024-03-06T13:13:34;5.07;;;4.50;;
8060;SDS011;4073;42.626;25.386;2024-03-06T13:16:00;7.30;;;5.30;;
8060;SDS011;4073;42.626;25.386;2024-03-06T13:18:26;9.50;;;5.07;;
8060;SDS011;4073;42.626;25.386;2024-03-06T13:20:51;8.17;;;5.00;;
8060;SDS011;4073;42.626;25.386;2024-03-06T13:23:17;7.83;;;4.67;;
8060;SDS011;4073;42.626;25.386;2024-03-06T13:25:43;6.23;;;4.53;;
8060;SDS011;4073;42.626;25.386;2024-03-06T13:28:10;5.93;;;4.27;;
8060;SDS011;4073;42.626;25.386;2024-03-06T13:30:36;7.17;;;4.70;;
8060;SDS011;4073;42.626;25.386;2024-03-06T13:33:04;7.40;;;5.10;;
8060;SDS011;4073;42.626;25.386;2024-03-06T13:35:30;10.77;;;6.17;;
8060;SDS011;4073;42.626;25.386;2024-03-06T13:37:56;7.73;;;6.03;;
8060;SDS011;4073;42.626;25.386;2024-03-06T13:40:21;7.23;;;6.00;;
8060;SDS011;4073;42.626;25.386;2024-03-06T13:42:47;10.67;;;7.43;;
8060;SDS011;4073;42.626;25.386;2024-03-06T13:45:12;10.57;;;7.07;;
8060;SDS011;4073;42.626;25.386;2024-03-06T13:47:39;9.37;;;6.77;;
8060;SDS011;4073;42.626;25.386;2024-03-06T13:50:09;10.47;;;6.53;;
8060;SDS011;4073;42.626;25.386;2024-03-06T13:52:36;9.23;;;7.00;;
8060;SDS011;4073;42.626;25.386;2024-03-06T13:55:02;12.83;;;7.07;;
8060;SDS011;4073;42.626;25.386;2024-03-06T13:57:30;10.27;;;6.77;;
8060;SDS011;4073;42.626;25.386;2024-03-06T13:59:58;7.10;;;6.37;;
8060;SDS011;4073;42.626;25.386;2024-03-06T14:02:31;11.43;;;8.10;;
8060;SDS011;4073;42.626;25.386;2024-03-06T14:04:57;8.73;;;6.33;;
8060;SDS011;4073;42.626;25.386;2024-03-06T14:07:23;9.10;;;7.30;;
8060;SDS011;4073;42.626;25.386;2024-03-06T14:09:51;11.00;;;8.73;;
8060;SDS011;4073;42.626;25.386;2024-03-06T14:12:17;13.70;;;10.10;;
8060;SDS011;4073;42.626;25.386;2024-03-06T14:14:43;11.80;;;8.73;;
8060;SDS011;4073;42.626;25.386;2024-03-06T14:17:10;12.20;;;9.00;;
8060;SDS011;4073;42.626;25.386;2024-03-06T14:19:36;11.43;;;8.67;;
8060;SDS011;4073;42.626;25.386;2024-03-06T14:22:01;11.93;;;9.33;;
8060;SDS011;4073;42.626;25.386;2024-03-06T14:24:27;12.03;;;8.53;;
8060;SDS011;4073;42.626;25.386;2024-03-06T14:26:52;11.53;;;9.43;;
8060;SDS011;4073;42.626;25.386;2024-03-06T14:29:18;12.47;;;8.57;;
8060;SDS011;4073;42.626;25.386;2024-03-06T14:31:43;8.90;;;7.30;;
8060;SDS011;4073;42.626;25.386;2024-03-06T14:34:09;10.97;;;8.73;;
8060;SDS011;4073;42.626;25.386;2024-03-06T14:36:35;13.93;;;8.37;;
8060;SDS011;4073;42.626;25.386;2024-03-06T14:39:01;10.53;;;7.77;;
8060;SDS011;4073;42.626;25.386;2024-03-06T14:41:26;9.93;;;7.30;;
8060;SDS011;4073;42.626;25.386;2024-03-06T14:43:52;13.20;;;8.47;;
8060;SDS011;4073;42.626;25.386;2024-03-06T14:46:19;14.13;;;8.43;;
8060;SDS011;4073;42.626;25.386;2024-03-06T14:48:45;12.40;;;9.10;;
8060;SDS011;4073;42.626;25.386;2024-03-06T14:51:10;15.77;;;11.33;;
8060;SDS011;4073;42.626;25.386;2024-03-06T14:53:36;11.33;;;7.97;;
8060;SDS011;4073;42.626;25.386;2024-03-06T14:56:02;12.40;;;8.60;;
8060;SDS011;4073;42.626;25.386;2024-03-06T14:58:27;11.47;;;8.73;;
8060;SDS011;4073;42.626;25.386;2024-03-06T15:00:53;11.53;;;8.90;;
8060;SDS011;4073;42.626;25.386;2024-03-06T15:03:19;11.53;;;8.30;;